Time;durP1;ratioP1;P1;durP2;ratioP2;P2;SDS_P1;SDS_P2;PMS_P1;PMS_P2;Temp;Humidity;BMP_temperature;BMP_pressure;BME280_temperature;BME280_humidity;BME280_pressure;Samples;Min_cycle;Max_cycle;Signal;HPM_P1;HPM_P2
2022/11/01 00:00:39;;;;;;;17.60;13.55;;;;;;;13.65;84.88;101672.92;1761733;81;21746;-88
2022/11/01 00:03:08;;;;;;;18.25;13.88;;;;;;;13.63;84.88;101672.88;1761272;81;21541;-88
2022/11/01 00:05:34;;;;;;;15.80;13.10;;;;;;;13.63;84.85;101675.53;1761495;81;21565;-88
2022/11/01 00:08:01;;;;;;;21.62;15.85;;;;;;;13.64;84.92;101677.73;1761311;81;21946;-88
2022/11/01 00:10:28;;;;;;;20.00;15.13;;;;;;;13.58;84.71;101673.17;1761343;81;21603;-88
2022/11/01 00:12:55;;;;;;;21.70;15.72;;;;;;;13.54;84.82;101675.27;1761289;81;22587;-88
2022/11/01 00:15:21;;;;;;;18.62;15.83;;;;;;;13.46;84.80;101671.09;1760023;81;21023;-88
2022/11/01 00:17:48;;;;;;;20.15;15.38;;;;;;;13.45;85.08;101672.36;1759830;81;21047;-88
2022/11/01 00:20:15;;;;;;;16.80;13.30;;;;;;;13.40;85.00;101667.85;1759757;81;21568;-88
2022/11/01 00:22:42;;;;;;;15.05;13.45;;;;;;;13.44;85.20;101672.80;1759960;81;21062;-88
2022/11/01 00:25:09;;;;;;;14.85;12.47;;;;;;;13.45;85.08;101663.11;1760070;81;22325;-88
2022/11/01 00:27:36;;;;;;;16.45;13.00;;;;;;;13.44;85.17;101665.27;1759698;81;21095;-88
2022/11/01 00:30:04;;;;;;;19.35;14.80;;;;;;;13.48;85.20;101661.88;1759602;81;21069;-88
2022/11/01 00:32:30;;;;;;;21.95;16.40;;;;;;;13.47;85.24;101656.11;1759934;81;21533;-89
2022/11/01 00:34:58;;;;;;;20.72;15.38;;;;;;;13.47;85.18;101662.72;1759763;81;21589;-88
2022/11/01 00:37:26;;;;;;;21.30;14.87;;;;;;;13.43;85.16;101668.78;1759423;81;21788;-88
2022/11/01 00:39:53;;;;;;;20.97;16.60;;;;;;;13.43;85.21;101671.43;1761091;80;21241;-88
2022/11/01 00:42:20;;;;;;;24.23;16.80;;;;;;;13.44;85.35;101663.95;1779071;80;21355;-88
2022/11/01 00:44:47;;;;;;;25.72;18.80;;;;;;;13.46;85.29;101664.88;1779528;80;21049;-88
2022/11/01 00:47:14;;;;;;;20.57;15.58;;;;;;;13.41;85.25;101660.37;1778362;80;21006;-88
2022/11/01 00:49:41;;;;;;;19.90;15.83;;;;;;;13.36;85.09;101654.48;1730901;82;21854;-88
2022/11/01 00:52:08;;;;;;;19.62;15.80;;;;;;;13.32;85.14;101661.86;1731247;82;21053;-87
2022/11/01 00:54:35;;;;;;;18.02;14.68;;;;;;;13.22;84.95;101648.78;1714738;82;21117;-87
2022/11/01 00:57:01;;;;;;;21.52;13.53;;;;;;;13.18;85.05;101652.20;1731363;82;21062;-87
2022/11/01 00:59:28;;;;;;;17.62;13.25;;;;;;;13.12;84.96;101653.31;1731358;82;21070;-87
2022/11/01 01:01:55;;;;;;;16.60;12.35;;;;;;;13.03;84.86;101648.68;1731409;81;21668;-87
2022/11/01 01:04:23;;;;;;;19.67;12.78;;;;;;;12.95;84.97;101644.49;1730558;81;21042;-87
2022/11/01 01:06:50;;;;;;;18.48;13.08;;;;;;;12.96;85.13;101641.41;1732404;81;21133;-87
2022/11/01 01:09:17;;;;;;;18.35;11.90;;;;;;;12.91;85.15;101640.37;1755668;81;21054;-87
2022/11/01 01:11:44;;;;;;;14.43;11.43;;;;;;;12.89;85.20;101638.11;1739765;80;21311;-87
2022/11/01 01:14:10;;;;;;;14.55;11.00;;;;;;;12.87;85.18;101639.38;1743397;79;21717;-87
2022/11/01 01:16:37;;;;;;;13.88;9.95;;;;;;;12.88;85.35;101638.55;1771117;80;21082;-87
2022/11/01 01:19:05;;;;;;;15.63;11.97;;;;;;;12.88;85.35;101637.23;1718844;80;21082;-87
2022/11/01 01:21:31;;;;;;;12.85;10.72;;;;;;;12.88;85.39;101625.77;1749107;81;21093;-87
2022/11/01 01:24:00;;;;;;;15.08;10.28;;;;;;;12.85;85.26;101627.88;1761440;81;21111;-87
2022/11/01 01:26:27;;;;;;;14.40;11.30;;;;;;;12.83;85.40;101623.86;1761350;81;21841;-86
2022/11/01 01:28:53;;;;;;;18.32;12.07;;;;;;;12.84;85.46;101628.31;1761360;81;21054;-87
2022/11/01 01:31:20;;;;;;;13.98;10.65;;;;;;;12.86;85.57;101624.80;1766453;80;21584;-87
2022/11/01 01:33:47;;;;;;;12.37;8.90;;;;;;;12.84;85.47;101619.50;1771277;80;21108;-87
2022/11/01 01:36:14;;;;;;;14.95;10.28;;;;;;;12.82;85.51;101618.12;1757122;81;21058;-87
2022/11/01 01:38:42;;;;;;;12.73;9.53;;;;;;;12.80;85.42;101614.95;1755466;81;21827;-87
2022/11/01 01:43:54;;;;;;;13.25;11.10;;;;;;;12.71;85.38;101605.02;1766825;80;21252;-87
2022/11/01 01:46:21;;;;;;;12.45;10.08;;;;;;;12.69;85.65;101605.41;1769093;80;21541;-87
2022/11/01 01:48:52;;;;;;;14.40;11.15;;;;;;;12.70;85.66;101603.22;1764340;80;22230;-87
2022/11/01 01:51:22;;;;;;;16.87;11.68;;;;;;;12.71;85.79;101604.14;1758953;81;21686;-87
2022/11/01 01:53:52;;;;;;;13.58;9.15;;;;;;;12.69;85.80;101598.80;1759036;81;21514;-87
2022/11/01 01:56:30;;;;;;;14.05;9.60;;;;;;;12.72;85.84;101595.34;1744122;81;22380;-87
2022/11/01 01:59:02;;;;;;;13.08;9.40;;;;;;;12.70;85.74;101597.05;1758921;81;21070;-87
2022/11/01 02:01:37;;;;;;;11.57;8.58;;;;;;;12.67;85.61;101598.27;1750515;80;21082;-87
2022/11/01 02:04:17;;;;;;;15.58;8.35;;;;;;;12.64;85.72;101594.69;1728521;81;21034;-87
2022/11/01 02:06:43;;;;;;;13.40;8.48;;;;;;;12.63;85.70;101599.91;1739560;80;21073;-87
2022/11/01 02:09:11;;;;;;;10.85;8.20;;;;;;;12.63;85.76;101594.23;1755329;81;21073;-87
2022/11/01 02:11:39;;;;;;;11.70;8.35;;;;;;;12.62;85.67;101596.39;1728885;81;21567;-87
2022/11/01 02:14:05;;;;;;;12.60;8.80;;;;;;;12.57;85.57;101586.53;1768824;80;21078;-87
2022/11/01 02:16:52;;;;;;;12.58;8.65;;;;;;;12.54;85.70;101586.03;1753964;81;21785;-87
2022/11/01 02:19:56;;;;;;;12.37;8.00;;;;;;;12.53;85.71;101584.66;1745945;82;21077;-87
2022/11/01 02:22:51;;;;;;;14.87;8.03;;;;;;;12.51;85.72;101585.03;1745583;81;21535;-87
2022/11/01 02:25:38;;;;;;;10.40;8.35;;;;;;;12.55;85.95;101584.27;1719813;82;21081;-87
2022/11/01 02:28:44;;;;;;;11.40;8.90;;;;;;;12.59;85.92;101583.11;1745578;81;21623;-87
2022/11/01 02:31:56;;;;;;;12.18;8.45;;;;;;;12.59;85.84;101579.15;1745664;81;21671;-87
2022/11/01 02:34:58;;;;;;;10.72;8.30;;;;;;;12.58;85.81;101581.30;1711380;81;21093;-88
2022/11/01 02:37:29;;;;;;;10.58;8.05;;;;;;;12.53;85.74;101577.62;1746081;82;21065;-87
2022/11/01 02:40:03;;;;;;;12.30;8.55;;;;;;;12.52;85.87;101579.80;1746500;81;21108;-87
2022/11/01 02:42:34;;;;;;;10.15;8.18;;;;;;;12.52;85.92;101583.77;1759216;81;21118;-87
2022/11/01 02:45:11;;;;;;;12.43;8.05;;;;;;;12.50;85.91;101580.19;1758976;81;22563;-86
2022/11/01 02:47:38;;;;;;;12.80;8.10;;;;;;;12.53;86.11;101578.94;1758897;81;21054;-86
2022/11/01 02:50:08;;;;;;;11.28;7.53;;;;;;;12.56;86.08;101579.48;1758918;81;21070;-86
2022/11/01 02:52:37;;;;;;;10.72;8.60;;;;;;;12.58;86.17;101581.30;1760703;81;21446;-87
2022/11/01 02:55:27;;;;;;;10.60;8.03;;;;;;;12.63;86.24;101586.31;1760220;81;21513;-86
2022/11/01 02:57:40;;;;;;;12.70;8.35;;;;;;;12.68;86.24;101589.50;1756970;80;21714;-86
2022/11/01 03:00:23;;;;;;;10.98;8.15;;;;;;;12.73;86.28;101582.63;1758796;81;21504;-87
2022/11/01 03:03:04;;;;;;;10.82;7.95;;;;;;;12.74;86.06;101588.36;1746135;80;21059;-87
2022/11/01 03:06:08;;;;;;;9.93;7.83;;;;;;;12.78;86.15;101590.23;1757281;81;21548;-86
2022/11/01 03:08:54;;;;;;;12.80;8.38;;;;;;;12.78;86.10;101588.91;1757122;80;21067;-86
2022/11/01 03:11:44;;;;;;;16.10;8.28;;;;;;;12.82;86.08;101595.67;1756582;80;23103;-86
2022/11/01 03:14:40;;;;;;;13.30;9.15;;;;;;;12.86;86.08;101586.09;1720435;80;21130;-87
2022/11/01 03:17:31;;;;;;;11.48;9.18;;;;;;;12.87;85.97;101593.58;1729522;82;21084;-86
2022/11/01 03:20:26;;;;;;;10.28;8.80;;;;;;;12.90;86.04;101590.60;1745956;82;21149;-86
2022/11/01 03:22:57;;;;;;;11.85;8.90;;;;;;;12.93;86.01;101595.98;1746200;81;21082;-87
2022/11/01 03:25:40;;;;;;;10.75;8.60;;;;;;;12.93;85.80;101596.39;1745742;82;21932;-87
2022/11/01 03:28:13;;;;;;;13.93;8.95;;;;;;;12.91;85.85;101596.34;1745790;82;21128;-86
2022/11/01 03:30:43;;;;;;;9.78;7.92;;;;;;;12.93;85.84;101595.98;1751741;81;21602;-87
2022/11/01 03:33:13;;;;;;;11.75;8.30;;;;;;;12.92;85.75;101598.14;1759475;81;21593;-86
2022/11/01 03:35:42;;;;;;;11.88;8.45;;;;;;;12.91;85.74;101600.30;1759544;81;21060;-87
2022/11/01 03:38:12;;;;;;;12.50;8.18;;;;;;;12.91;85.70;101592.38;1726421;81;21763;-87
2022/11/01 03:40:43;;;;;;;16.35;9.68;;;;;;;12.93;85.81;101597.31;1753531;80;21079;-87
2022/11/01 03:43:12;;;;;;;14.28;9.75;;;;;;;12.95;85.84;101596.00;1754054;80;21104;-86
2022/11/01 03:45:39;;;;;;;17.30;10.05;;;;;;;12.98;85.89;101601.39;1753853;80;21059;-87
2022/11/01 03:48:06;;;;;;;16.07;10.23;;;;;;;12.98;85.81;101593.03;1753833;81;21112;-87
2022/11/01 03:50:33;;;;;;;12.93;9.83;;;;;;;12.98;85.72;101594.34;1753643;81;21751;-86
2022/11/01 03:52:59;;;;;;;14.45;9.70;;;;;;;12.98;85.79;101590.38;1753571;81;21073;-87
2022/11/01 03:55:26;;;;;;;14.07;10.23;;;;;;;12.99;85.60;101588.66;1767015;81;21049;-87
2022/11/01 03:57:58;;;;;;;14.55;9.93;;;;;;;12.95;85.59;101582.39;1766974;81;21050;-87
2022/11/01 04:00:30;;;;;;;16.73;9.98;;;;;;;12.93;85.56;101576.17;1765811;81;21116;-87
2022/11/01 04:02:57;;;;;;;14.83;9.95;;;;;;;12.93;85.67;101577.89;1765351;81;21763;-86
2022/11/01 04:05:26;;;;;;;16.12;10.13;;;;;;;12.94;85.71;101581.02;1765341;81;21113;-87
2022/11/01 04:07:53;;;;;;;18.73;9.80;;;;;;;12.94;85.82;101575.73;1765550;81;21043;-87
2022/11/01 04:10:22;;;;;;;13.38;9.80;;;;;;;12.96;85.79;101573.59;1764783;81;21493;-87
2022/11/01 04:12:49;;;;;;;12.58;9.40;;;;;;;12.98;85.79;101571.00;1765557;81;21526;-86
2022/11/01 04:21:11;;;;;;;10.85;8.73;;;;;;;12.90;85.69;101554.93;1765518;81;21058;-86
2022/11/01 04:23:38;;;;;;;10.95;8.55;;;;;;;12.90;85.61;101551.41;1765578;81;21055;-87
2022/11/01 04:26:06;;;;;;;9.88;7.85;;;;;;;12.88;85.57;101546.07;1765418;81;22172;-86
2022/11/01 04:28:33;;;;;;;14.68;8.95;;;;;;;12.89;85.72;101542.98;1765348;81;21778;-87
2022/11/01 04:30:59;;;;;;;10.98;8.43;;;;;;;12.90;85.69;101542.16;1765385;81;21038;-86
2022/11/01 04:33:27;;;;;;;11.80;8.65;;;;;;;12.88;85.56;101540.78;1767958;81;21456;-87
2022/11/01 04:35:53;;;;;;;12.28;8.23;;;;;;;12.87;85.73;101534.13;1769024;80;21106;-86
2022/11/01 04:38:20;;;;;;;13.55;8.40;;;;;;;12.88;85.60;101532.86;1769185;81;21089;-87
2022/11/01 04:40:47;;;;;;;10.25;7.90;;;;;;;12.83;85.61;101533.14;1769358;80;21736;-86
2022/11/01 04:43:14;;;;;;;10.85;7.55;;;;;;;12.83;85.73;101541.95;1768935;81;21345;-86
2022/11/01 04:45:41;;;;;;;10.40;8.10;;;;;;;12.81;85.63;101542.78;1741506;81;21327;-86
2022/11/01 04:48:12;;;;;;;13.20;7.58;;;;;;;12.81;85.64;101546.73;1769082;80;21033;-87
2022/11/01 04:50:40;;;;;;;14.80;8.08;;;;;;;12.82;85.76;101539.30;1768674;80;21034;-89
2022/11/01 04:53:07;;;;;;;12.58;8.08;;;;;;;12.86;85.78;101544.21;1741035;81;21766;-86
2022/11/01 04:55:34;;;;;;;18.62;9.30;;;;;;;12.87;85.72;101541.63;1763510;81;21069;-86
2022/11/01 04:58:00;;;;;;;12.95;7.92;;;;;;;12.85;85.63;101534.08;1718975;83;21196;-86
2022/11/01 05:00:27;;;;;;;14.55;8.43;;;;;;;12.84;85.73;101529.66;1726712;83;21688;-86
2022/11/01 05:03:05;;;;;;;10.43;7.87;;;;;;;12.89;85.80;101537.27;1726872;83;21725;-86
2022/11/01 05:05:32;;;;;;;12.45;8.10;;;;;;;12.90;85.75;101529.83;1726334;83;21745;-86
2022/11/01 05:08:08;;;;;;;11.53;8.10;;;;;;;12.90;85.76;101520.58;1726766;83;21093;-86
2022/11/01 05:10:36;;;;;;;10.30;7.22;;;;;;;12.90;85.70;101516.62;1727004;83;21145;-87
2022/11/01 05:13:03;;;;;;;12.85;9.65;;;;;;;12.89;85.75;101512.17;1697673;83;21527;-87
2022/11/01 05:15:30;;;;;;;13.18;9.33;;;;;;;12.91;85.78;101513.54;1724410;83;21113;-87
2022/11/01 05:17:57;;;;;;;14.35;10.58;;;;;;;12.91;85.81;101510.46;1709698;83;22093;-87
2022/11/01 05:20:23;;;;;;;17.90;11.43;;;;;;;12.92;85.85;101503.02;1740355;81;22462;-87
2022/11/01 05:22:50;;;;;;;14.93;10.88;;;;;;;12.91;85.73;101501.65;1709497;83;21070;-87
2022/11/01 05:25:18;;;;;;;16.23;11.48;;;;;;;12.90;85.75;101498.55;1740042;81;21504;-87
2022/11/01 05:27:44;;;;;;;18.82;12.20;;;;;;;12.88;85.81;101498.94;1709192;83;21031;-86
2022/11/01 05:30:12;;;;;;;14.18;11.03;;;;;;;12.90;85.90;101492.84;1749491;81;22218;-87
2022/11/01 05:32:39;;;;;;;16.07;10.98;;;;;;;12.88;85.87;101480.45;1770142;80;21058;-87
2022/11/01 05:35:06;;;;;;;15.78;11.35;;;;;;;12.84;85.75;101472.86;1769040;81;21050;-86
2022/11/01 05:37:34;;;;;;;16.90;10.80;;;;;;;12.82;85.87;101474.57;1741219;81;20999;-87
2022/11/01 05:40:02;;;;;;;14.28;11.28;;;;;;;12.82;85.98;101471.49;1741400;80;21091;-86
2022/11/01 05:42:28;;;;;;;16.02;11.60;;;;;;;12.82;85.95;101478.09;1769370;80;21736;-87
2022/11/01 05:44:55;;;;;;;20.17;12.25;;;;;;;12.82;85.91;101474.57;1742628;81;21112;-87
2022/11/01 05:47:22;;;;;;;22.62;12.93;;;;;;;12.79;85.92;101469.19;1734698;81;21115;-87
2022/11/01 05:49:49;;;;;;;19.67;13.50;;;;;;;12.76;85.95;101469.09;1734924;81;21081;-87
2022/11/01 05:52:18;;;;;;;23.10;14.53;;;;;;;12.76;86.05;101470.41;1734083;82;21359;-86
2022/11/01 05:54:44;;;;;;;17.80;13.15;;;;;;;12.76;86.16;101477.94;1733402;82;22559;-87
2022/11/01 05:57:11;;;;;;;28.67;15.00;;;;;;;12.77;86.13;101474.42;1751878;81;21528;-86
2022/11/01 05:59:38;;;;;;;23.00;14.65;;;;;;;12.80;86.21;101476.25;1767608;80;21591;-87
2022/11/01 06:02:05;;;;;;;21.40;14.30;;;;;;;12.82;86.24;101478.53;1767069;80;21641;-87
2022/11/01 06:04:32;;;;;;;26.90;14.80;;;;;;;12.83;86.30;101475.91;1767633;80;21047;-87
2022/11/01 06:06:58;;;;;;;23.20;14.87;;;;;;;12.84;86.26;101470.22;1767470;80;21735;-87
2022/11/01 06:09:25;;;;;;;26.37;14.30;;;;;;;12.86;86.25;101471.55;1767371;80;21054;-87
2022/11/01 06:11:52;;;;;;;20.35;14.28;;;;;;;12.87;86.20;101466.75;1767247;81;21094;-87
2022/11/01 06:14:19;;;;;;;22.85;14.55;;;;;;;12.85;86.16;101474.63;1767314;80;21039;-87
2022/11/01 06:16:46;;;;;;;23.30;14.80;;;;;;;12.86;86.23;101475.52;1763480;80;21090;-86
2022/11/01 06:19:12;;;;;;;19.55;14.65;;;;;;;12.87;86.13;101483.93;1758818;80;21892;-87
2022/11/01 06:21:39;;;;;;;26.60;16.25;;;;;;;12.88;86.22;101488.38;1758775;80;21562;-87
2022/11/01 06:24:06;;;;;;;23.73;16.25;;;;;;;12.90;86.26;101486.23;1758826;80;21508;-86
2022/11/01 06:26:33;;;;;;;28.12;17.80;;;;;;;12.91;86.16;101482.72;1766710;80;21050;-87
2022/11/01 06:29:01;;;;;;;28.75;18.20;;;;;;;12.89;86.15;101482.22;1769148;81;21030;-86
2022/11/01 06:31:28;;;;;;;24.35;16.77;;;;;;;12.91;86.24;101480.51;1766380;81;22543;-87
2022/11/01 06:33:54;;;;;;;27.52;16.70;;;;;;;12.92;86.21;101477.91;1761224;81;20951;-87
2022/11/01 06:36:22;;;;;;;28.17;17.85;;;;;;;12.95;86.25;101470.48;1761651;81;21046;-87
2022/11/01 06:38:49;;;;;;;27.00;17.02;;;;;;;12.91;86.11;101466.86;1761166;81;21170;-87
2022/11/01 06:41:15;;;;;;;26.02;17.65;;;;;;;12.90;86.17;101458.48;1761682;80;21064;-87
2022/11/01 06:43:42;;;;;;;31.05;19.80;;;;;;;12.91;86.26;101465.98;1761656;80;21735;-87
2022/11/01 06:46:09;;;;;;;30.55;19.37;;;;;;;12.94;86.22;101466.07;1747995;80;21486;-86
2022/11/01 06:48:36;;;;;;;28.55;19.17;;;;;;;12.96;86.29;101468.33;1731468;81;20974;-86
2022/11/01 06:51:04;;;;;;;27.75;18.75;;;;;;;12.97;86.29;101461.77;1748311;81;21479;-86
2022/11/01 06:53:31;;;;;;;29.32;19.98;;;;;;;12.97;86.21;101456.48;1744187;81;22370;-87
2022/11/01 06:55:59;;;;;;;29.00;19.25;;;;;;;12.97;86.27;101450.27;1761168;81;22591;-89
2022/11/01 06:58:26;;;;;;;30.25;19.75;;;;;;;13.01;86.35;101458.78;1761398;81;21030;-86
2022/11/01 07:00:53;;;;;;;35.92;20.50;;;;;;;13.02;86.24;101459.23;1760899;81;21054;-86
2022/11/01 07:03:20;;;;;;;35.35;20.20;;;;;;;13.04;86.32;101462.80;1761180;81;21113;-87
2022/11/01 07:05:48;;;;;;;30.08;19.98;;;;;;;13.09;86.39;101456.33;1761270;81;21055;-86
2022/11/01 07:08:15;;;;;;;31.57;20.25;;;;;;;13.12;86.46;101458.62;1761449;81;21738;-87
2022/11/01 07:10:42;;;;;;;29.45;19.27;;;;;;;13.15;86.26;101455.16;1761493;81;21046;-86
2022/11/01 07:13:11;;;;;;;31.40;19.60;;;;;;;13.15;86.23;101452.52;1760039;79;21058;-87
2022/11/01 07:15:38;;;;;;;33.30;20.52;;;;;;;13.16;86.19;101444.63;1761030;81;21128;-87
2022/11/01 07:18:07;;;;;;;28.10;19.95;;;;;;;13.14;86.12;101440.17;1731340;82;21760;-87
2022/11/01 07:20:40;;;;;;;31.77;21.07;;;;;;;13.13;86.21;101432.65;1731212;82;21573;-86
2022/11/01 07:23:04;;;;;;;39.70;21.60;;;;;;;13.15;86.13;101432.69;1755732;80;21063;-87
2022/11/01 07:25:31;;;;;;;34.38;21.35;;;;;;;13.17;86.30;101428.34;1760901;80;21635;-87
2022/11/01 07:27:58;;;;;;;33.28;21.15;;;;;;;13.22;86.33;101433.32;1761484;81;22220;-87
2022/11/01 07:30:25;;;;;;;34.23;20.62;;;;;;;13.25;86.33;101432.49;1761272;81;21101;-86
2022/11/01 07:32:56;;;;;;;30.65;20.30;;;;;;;13.28;86.27;101436.11;1761166;81;21659;-87
2022/11/01 07:35:24;;;;;;;31.93;20.37;;;;;;;13.31;86.31;101436.67;1761309;81;22239;-86
2022/11/01 07:37:50;;;;;;;32.90;21.10;;;;;;;13.31;86.17;101427.41;1761479;81;22205;-86
2022/11/01 07:40:18;;;;;;;31.80;21.07;;;;;;;13.32;86.20;101437.11;1761556;80;21116;-87
2022/11/01 07:42:44;;;;;;;29.23;19.90;;;;;;;13.33;86.14;101432.30;1761516;81;21907;-86
2022/11/01 07:45:12;;;;;;;32.28;21.77;;;;;;;13.32;86.12;101428.75;1746828;82;21788;-85
2022/11/01 07:47:39;;;;;;;27.62;20.10;;;;;;;13.35;86.25;101423.98;1746823;82;20974;-87
2022/11/01 07:50:06;;;;;;;33.60;21.27;;;;;;;13.34;86.09;101418.21;1761500;81;21090;-87
2022/11/01 07:52:33;;;;;;;30.95;20.05;;;;;;;13.32;86.13;101419.93;1761166;81;21140;-86
2022/11/01 07:55:00;;;;;;;29.02;20.43;;;;;;;13.31;86.06;101417.72;1761556;81;21042;-86
2022/11/01 07:57:27;;;;;;;29.63;21.68;;;;;;;13.30;86.14;101405.34;1761311;81;22404;-86
2022/11/01 07:59:54;;;;;;;31.12;21.48;;;;;;;13.31;86.17;101406.27;1761329;81;20947;-87
2022/11/01 08:02:20;;;;;;;32.67;21.10;;;;;;;13.31;86.18;101403.17;1761360;81;21058;-87
2022/11/01 08:04:47;;;;;;;31.20;20.97;;;;;;;13.29;86.07;101397.33;1761262;81;21156;-87
2022/11/01 08:07:14;;;;;;;32.13;22.62;;;;;;;13.28;86.16;101400.41;1761404;81;21006;-86
2022/11/01 08:09:42;;;;;;;33.73;21.80;;;;;;;13.28;86.18;101395.56;1761402;81;21722;-87
2022/11/01 08:12:09;;;;;;;31.00;22.77;;;;;;;13.31;86.27;101387.31;1761281;81;21098;-86
2022/11/01 08:14:36;;;;;;;34.48;24.07;;;;;;;13.30;86.17;101386.83;1761195;81;21546;-86
2022/11/01 08:17:03;;;;;;;38.55;23.80;;;;;;;13.29;86.19;101383.71;1751943;81;21077;-89
2022/11/01 08:19:30;;;;;;;33.55;22.40;;;;;;;13.30;86.26;101374.94;1759832;81;21113;-87
2022/11/01 08:21:58;;;;;;;32.23;23.95;;;;;;;13.34;86.29;101371.94;1745846;81;21773;-86
2022/11/01 08:24:26;;;;;;;33.60;23.62;;;;;;;13.38;86.43;101365.45;1763033;81;20996;-87
2022/11/01 08:26:53;;;;;;;34.08;24.87;;;;;;;13.44;86.37;101371.72;1763063;81;21027;-86
2022/11/01 08:29:20;;;;;;;36.17;26.17;;;;;;;13.45;86.24;101377.48;1763021;81;21939;-87
2022/11/01 08:31:48;;;;;;;32.78;24.20;;;;;;;13.47;86.31;101384.59;1763148;81;21058;-86
2022/11/01 08:34:14;;;;;;;43.83;27.48;;;;;;;13.48;86.18;101386.83;1769023;81;21753;-87
2022/11/01 08:36:41;;;;;;;49.73;31.48;;;;;;;13.47;86.06;101379.73;1768707;81;21517;-86
2022/11/01 08:39:08;;;;;;;47.75;31.52;;;;;;;13.38;85.80;101374.71;1769181;81;21085;-86
2022/11/01 08:41:35;;;;;;;44.40;30.43;;;;;;;13.37;85.83;101382.16;1769134;80;21421;-86
2022/11/01 08:44:02;;;;;;;40.10;28.70;;;;;;;13.39;85.91;101402.03;1764676;80;21070;-87
2022/11/01 08:46:29;;;;;;;44.30;29.72;;;;;;;13.37;85.83;101410.37;1745181;80;22478;-86
2022/11/01 08:48:58;;;;;;;38.20;27.52;;;;;;;13.38;85.87;101422.71;1751174;81;21304;-87
2022/11/01 08:51:25;;;;;;;35.98;25.95;;;;;;;13.41;85.92;101442.20;1769320;81;21057;-87
2022/11/01 08:53:55;;;;;;;31.90;24.70;;;;;;;13.43;85.88;101451.93;1769731;80;21322;-86
2022/11/01 08:56:26;;;;;;;32.08;24.50;;;;;;;13.46;85.84;101445.38;1769471;81;21042;-86
2022/11/01 08:58:53;;;;;;;34.65;25.50;;;;;;;13.47;85.82;101443.20;1769316;80;21763;-86
2022/11/01 09:01:22;;;;;;;34.35;24.52;;;;;;;13.49;85.78;101452.95;1769555;80;22365;-86
2022/11/01 09:03:49;;;;;;;30.90;24.05;;;;;;;13.51;85.75;101455.20;1769677;80;21042;-86
2022/11/01 09:06:16;;;;;;;29.77;23.20;;;;;;;13.54;85.67;101455.30;1769644;81;21105;-87
2022/11/01 09:08:43;;;;;;;29.95;22.40;;;;;;;13.54;85.56;101456.61;1769815;80;21051;-86
2022/11/01 09:11:09;;;;;;;27.35;22.07;;;;;;;13.55;85.52;101453.13;1769631;80;22410;-86
2022/11/01 09:13:37;;;;;;;29.42;21.45;;;;;;;13.59;85.55;101454.09;1749843;79;22154;-86
2022/11/01 09:16:07;;;;;;;29.52;23.42;;;;;;;13.59;85.41;101448.38;1720173;82;21541;-86
2022/11/01 09:18:33;;;;;;;30.40;24.25;;;;;;;13.63;85.40;101452.39;1720053;83;21660;-87
2022/11/01 09:21:00;;;;;;;34.35;24.90;;;;;;;13.65;85.36;101449.38;1720202;82;21061;-86
2022/11/01 09:23:27;;;;;;;31.45;24.70;;;;;;;13.69;85.38;101449.91;1720076;83;21640;-87
2022/11/01 09:26:04;;;;;;;30.68;24.50;;;;;;;13.72;85.47;101438.97;1720113;82;21743;-86
2022/11/01 09:28:31;;;;;;;29.90;24.07;;;;;;;13.78;85.40;101443.08;1719307;82;21078;-86
2022/11/01 09:31:05;;;;;;;31.57;24.82;;;;;;;13.82;85.32;101435.22;1718613;82;21058;-87
2022/11/01 09:33:32;;;;;;;29.07;23.20;;;;;;;13.84;85.13;101433.06;1717431;82;21074;-87
2022/11/01 09:35:59;;;;;;;34.90;26.40;;;;;;;13.86;85.11;101426.05;1717078;82;21741;-87
2022/11/01 09:38:26;;;;;;;33.92;27.87;;;;;;;13.87;85.03;101429.17;1716907;82;21129;-87
2022/11/01 09:41:22;;;;;;;31.60;25.27;;;;;;;13.92;85.02;101430.58;1716809;81;21054;-86
2022/11/01 09:43:49;;;;;;;31.42;25.50;;;;;;;13.94;84.90;101431.06;1697257;83;21071;-86
2022/11/01 09:46:16;;;;;;;36.28;26.20;;;;;;;13.96;84.80;101429.78;1713248;83;21054;-86
2022/11/01 09:48:43;;;;;;;27.73;20.97;;;;;;;14.02;84.82;101423.33;1714036;83;21713;-86
2022/11/01 09:51:22;;;;;;;28.62;19.87;;;;;;;14.07;84.70;101420.32;1714162;83;21042;-87
2022/11/01 09:53:50;;;;;;;23.30;18.52;;;;;;;14.15;84.72;101424.45;1714518;83;21480;-87
2022/11/01 09:56:39;;;;;;;21.15;18.55;;;;;;;14.26;84.65;101422.92;1716022;83;21054;-87
2022/11/01 09:59:26;;;;;;;25.80;20.20;;;;;;;14.38;84.54;101417.89;1716736;83;21021;-85
2022/11/01 10:02:02;;;;;;;23.85;19.65;;;;;;;14.47;84.31;101408.33;1672984;83;22631;-86
2022/11/01 10:04:46;;;;;;;22.58;18.85;;;;;;;14.56;84.13;101403.20;1716360;83;20991;-87
2022/11/01 10:07:39;;;;;;;21.00;17.62;;;;;;;14.65;84.11;101404.74;1706767;82;20999;-87
2022/11/01 10:10:40;;;;;;;25.95;19.92;;;;;;;14.70;83.72;101399.55;1716167;81;21038;-86
2022/11/01 10:13:37;;;;;;;23.65;20.00;;;;;;;14.70;83.38;101389.83;1716365;83;21581;-87
2022/11/01 10:16:24;;;;;;;25.57;19.48;;;;;;;14.68;83.19;101378.75;1715181;83;22531;-87
2022/11/01 10:19:03;;;;;;;29.63;21.27;;;;;;;14.69;83.16;101381.41;1669260;83;21013;-87
2022/11/01 10:21:41;;;;;;;27.65;20.30;;;;;;;14.72;82.88;101381.91;1708383;82;20913;-87
2022/11/01 10:24:07;;;;;;;24.52;17.55;;;;;;;14.67;82.72;101367.68;1708506;81;20977;-86
2022/11/01 10:26:35;;;;;;;24.52;17.70;;;;;;;14.61;82.59;101375.52;1708451;83;21020;-87
2022/11/01 10:29:07;;;;;;;20.77;16.52;;;;;;;14.64;82.79;101376.48;1707400;83;21757;-86
2022/11/01 10:31:38;;;;;;;24.80;18.00;;;;;;;14.65;82.58;101370.30;1701778;83;21084;-87
2022/11/01 10:34:24;;;;;;;23.18;17.00;;;;;;;14.67;82.65;101371.66;1712266;82;21046;-86
2022/11/01 10:36:51;;;;;;;20.15;16.73;;;;;;;14.69;82.47;101370.80;1724502;83;21065;-87
2022/11/01 10:39:32;;;;;;;20.57;17.02;;;;;;;14.71;82.57;101362.89;1745411;82;22178;-86
2022/11/01 10:42:00;;;;;;;22.15;17.23;;;;;;;14.66;82.19;101361.50;1724326;81;21866;-87
2022/11/01 10:44:33;;;;;;;22.82;17.00;;;;;;;14.63;82.32;101355.25;1695651;83;21129;-87
2022/11/01 10:47:03;;;;;;;22.62;17.17;;;;;;;14.62;82.18;101350.80;1762362;80;21077;-87
2022/11/01 10:49:41;;;;;;;20.32;16.00;;;;;;;14.58;82.15;101354.73;1743633;82;21544;-87
2022/11/01 10:52:10;;;;;;;22.00;16.55;;;;;;;14.61;82.35;101351.69;1744004;82;21166;-87
2022/11/01 10:54:40;;;;;;;18.82;15.70;;;;;;;14.67;82.29;101353.98;1743954;82;21751;-86
2022/11/01 10:57:20;;;;;;;20.25;16.65;;;;;;;14.71;82.21;101365.54;1744076;82;21080;-86
2022/11/01 10:59:47;;;;;;;18.75;15.32;;;;;;;14.71;82.04;101365.54;1740481;82;21045;-86
2022/11/01 11:02:32;;;;;;;18.73;15.38;;;;;;;14.71;82.04;101365.09;1744248;81;21089;-86
2022/11/01 11:04:59;;;;;;;19.35;15.63;;;;;;;14.72;81.93;101380.14;1744280;82;21046;-86
2022/11/01 11:07:29;;;;;;;20.37;15.38;;;;;;;14.68;81.83;101386.70;1762667;80;21715;-87
2022/11/01 11:09:56;;;;;;;21.12;16.65;;;;;;;14.68;81.85;101382.28;1775123;80;21637;-86
2022/11/01 11:12:23;;;;;;;20.68;16.30;;;;;;;14.69;81.93;101382.73;1775069;80;21190;-86
2022/11/01 11:15:03;;;;;;;21.15;17.35;;;;;;;14.65;81.73;101383.98;1774380;79;21045;-86
2022/11/01 11:17:42;;;;;;;23.15;16.85;;;;;;;14.57;81.66;101389.14;1775070;80;21523;-86
2022/11/01 11:20:10;;;;;;;21.00;16.77;;;;;;;14.56;81.70;101399.23;1775199;80;22516;-86
2022/11/01 11:22:42;;;;;;;22.10;17.30;;;;;;;14.49;81.66;101403.95;1775136;80;21037;-85
2022/11/01 11:25:14;;;;;;;35.83;27.13;;;;;;;14.44;81.69;101397.69;1749218;80;21058;-87
2022/11/01 11:27:46;;;;;;;29.55;22.77;;;;;;;14.38;81.63;101390.52;1749289;80;22071;-87
2022/11/01 11:30:15;;;;;;;22.75;19.50;;;;;;;14.33;81.70;101384.23;1775326;80;21042;-88
2022/11/01 11:32:48;;;;;;;22.42;17.65;;;;;;;14.29;81.77;101387.25;1748186;80;21749;-87
2022/11/01 11:35:20;;;;;;;22.62;19.37;;;;;;;14.26;81.75;101392.47;1767646;81;21591;-86